Orbital elements of SL-24 R/B
| Launched | 19 December 2002 |
| Flight ended | – |
| Launch site | Tyuratam Missile and Space Center, Kazakhstan (Also known as Baikonur Cosmodrome) |
| Owner | Commonwealth of Independent States (former USSR) |
| NORAD ID | 27610 |
| Date fetched |
Epoch osculation |
Inc. [°] |
Ecc. | RA asc node [hr] |
Arg Peri. [°] |
Mean anom [°] |
Mean motion [rev/day] |
Abs. mag |
| Date fetched |
Epoch osculation |
Inc. [°] |
Ecc. | RA asc node [hr] |
Arg Peri. [°] |
Mean anom [°] |
Mean motion [rev/day] |
Abs. mag |
| 2026 May 08 17:57 | 2026 May 05 10:36:18 | 64.5594 | 0.02654 | 19.4402 | 86.5166 | 303.6975 | 14.29537 | 5.243 |
| 2026 May 07 17:58 | 2026 May 05 10:36:18 | 64.5594 | 0.02654 | 19.4402 | 86.5166 | 303.6975 | 14.29537 | 5.243 |
| 2026 May 06 17:57 | 2026 May 05 10:36:18 | 64.5594 | 0.02654 | 19.4402 | 86.5166 | 303.6975 | 14.29537 | 5.243 |
| 2026 May 05 17:57 | 2026 May 05 10:36:18 | 64.5594 | 0.02654 | 19.4402 | 86.5166 | 303.6975 | 14.29537 | 5.243 |
| 2026 May 04 17:57 | 2026 Apr 30 14:54:32 | 64.5595 | 0.02654 | 20.3538 | 87.8708 | 303.6975 | 14.29537 | 5.243 |
| 2026 May 03 17:57 | 2026 Apr 30 14:54:32 | 64.5595 | 0.02654 | 20.3538 | 87.8708 | 303.6975 | 14.29537 | 5.243 |
| 2026 May 02 17:57 | 2026 Apr 30 14:54:32 | 64.5595 | 0.02654 | 20.3538 | 87.8708 | 303.6975 | 14.29537 | 5.243 |
| 2026 May 01 17:56 | 2026 Apr 30 14:54:32 | 64.5595 | 0.02654 | 20.3538 | 87.8708 | 303.6975 | 14.29537 | 5.243 |
| 2026 Apr 30 17:56 | 2026 Apr 30 14:54:32 | 64.5595 | 0.02654 | 20.3538 | 87.8708 | 303.6975 | 14.29537 | 5.243 |
| 2026 Apr 29 17:57 | 2026 Apr 24 08:17:56 | 64.5599 | 0.02654 | 21.5430 | 89.6471 | 303.6975 | 14.29537 | 5.243 |
| 2026 Apr 28 17:56 | 2026 Apr 24 08:17:56 | 64.5599 | 0.02654 | 21.5430 | 89.6471 | 303.6975 | 14.29537 | 5.243 |
| 2026 Apr 27 17:58 | 2026 Apr 24 08:17:56 | 64.5599 | 0.02654 | 21.5430 | 89.6471 | 303.6975 | 14.29537 | 5.243 |
| 2026 Apr 26 17:58 | 2026 Apr 24 08:17:56 | 64.5599 | 0.02654 | 21.5430 | 89.6471 | 303.6975 | 14.29537 | 5.243 |
| 2026 Apr 25 17:58 | 2026 Apr 24 08:17:56 | 64.5599 | 0.02654 | 21.5430 | 89.6471 | 303.6975 | 14.29537 | 5.243 |
| 2026 Apr 24 17:59 | 2026 Apr 24 08:17:56 | 64.5599 | 0.02654 | 21.5430 | 89.6471 | 303.6975 | 14.29537 | 5.243 |
| 2026 Apr 23 17:57 | 2026 Apr 19 00:38:37 | 64.5607 | 0.02654 | 22.5510 | 91.1583 | 303.6975 | 14.29537 | 5.243 |
| 2026 Apr 22 17:57 | 2026 Apr 19 00:38:37 | 64.5607 | 0.02654 | 22.5510 | 91.1583 | 303.6975 | 14.29537 | 5.243 |
| 2026 Apr 21 17:57 | 2026 Apr 19 00:38:37 | 64.5607 | 0.02654 | 22.5510 | 91.1583 | 303.6975 | 14.29537 | 5.243 |
| 2026 Apr 20 17:57 | 2026 Apr 19 00:38:37 | 64.5607 | 0.02654 | 22.5510 | 91.1583 | 303.6975 | 14.29537 | 5.243 |
| 2026 Apr 19 17:58 | 2026 Apr 19 00:38:37 | 64.5607 | 0.02654 | 22.5510 | 91.1583 | 303.6975 | 14.29537 | 5.243 |
| 2026 Apr 18 17:56 | 2026 Apr 13 03:34:39 | 64.5615 | 0.02654 | 23.6648 | 92.8252 | 303.6975 | 14.29537 | 5.243 |
| 2026 Apr 16 17:57 | 2026 Apr 13 03:34:39 | 64.5615 | 0.02654 | 23.6648 | 92.8252 | 303.6975 | 14.29537 | 5.243 |
| 2026 Apr 14 17:57 | 2026 Apr 13 03:34:39 | 64.5615 | 0.02654 | 23.6648 | 92.8252 | 303.6975 | 14.29537 | 5.243 |
| 2026 Apr 13 17:57 | 2026 Apr 13 03:34:39 | 64.5615 | 0.02654 | 23.6648 | 92.8252 | 303.6975 | 14.29537 | 5.243 |
| 2026 Apr 12 17:57 | 2026 Apr 08 04:24:00 | 64.5619 | 0.02655 | 0.6057 | 94.2356 | 303.6975 | 14.29537 | 5.243 |
| 2026 Apr 11 17:57 | 2026 Apr 08 04:24:00 | 64.5619 | 0.02655 | 0.6057 | 94.2356 | 303.6975 | 14.29537 | 5.243 |